sensor_id;sensor_type;location;lat;lon;timestamp;temperature;humidity
48575;DHT22;34352;51.084;3.712;2022-07-17T00:00:27;16.60;93.80
48575;DHT22;34352;51.084;3.712;2022-07-17T00:02:54;16.40;94.20
48575;DHT22;34352;51.084;3.712;2022-07-17T00:05:20;16.40;94.40
48575;DHT22;34352;51.084;3.712;2022-07-17T00:07:45;16.40;94.60
48575;DHT22;34352;51.084;3.712;2022-07-17T00:10:14;16.30;95.10
48575;DHT22;34352;51.084;3.712;2022-07-17T00:12:40;16.20;95.30
48575;DHT22;34352;51.084;3.712;2022-07-17T00:15:06;16.20;95.50
48575;DHT22;34352;51.084;3.712;2022-07-17T00:17:32;16.20;95.70
48575;DHT22;34352;51.084;3.712;2022-07-17T00:19:57;16.10;95.90
48575;DHT22;34352;51.084;3.712;2022-07-17T00:22:23;16.10;96.30
48575;DHT22;34352;51.084;3.712;2022-07-17T00:24:49;16.10;96.50
48575;DHT22;34352;51.084;3.712;2022-07-17T00:27:14;16.00;96.70
48575;DHT22;34352;51.084;3.712;2022-07-17T00:29:40;16.50;97.10
48575;DHT22;34352;51.084;3.712;2022-07-17T00:32:07;16.00;97.20
48575;DHT22;34352;51.084;3.712;2022-07-17T00:34:33;16.70;97.50
48575;DHT22;34352;51.084;3.712;2022-07-17T00:36:58;16.60;97.90
48575;DHT22;34352;51.084;3.712;2022-07-17T00:39:24;16.00;97.60
48575;DHT22;34352;51.084;3.712;2022-07-17T00:41:51;16.00;97.60
48575;DHT22;34352;51.084;3.712;2022-07-17T00:44:16;16.00;97.90
48575;DHT22;34352;51.084;3.712;2022-07-17T00:46:42;16.00;97.80
48575;DHT22;34352;51.084;3.712;2022-07-17T00:49:08;16.00;97.70
48575;DHT22;34352;51.084;3.712;2022-07-17T00:51:35;16.00;98.10
48575;DHT22;34352;51.084;3.712;2022-07-17T00:54:02;16.00;98.10
48575;DHT22;34352;51.084;3.712;2022-07-17T00:56:28;16.00;98.20
48575;DHT22;34352;51.084;3.712;2022-07-17T00:58:55;16.60;98.40
48575;DHT22;34352;51.084;3.712;2022-07-17T01:01:21;16.10;98.10
48575;DHT22;34352;51.084;3.712;2022-07-17T01:03:47;16.00;98.40
48575;DHT22;34352;51.084;3.712;2022-07-17T01:06:14;16.00;98.20
48575;DHT22;34352;51.084;3.712;2022-07-17T01:08:40;16.10;98.10
48575;DHT22;34352;51.084;3.712;2022-07-17T01:11:08;16.40;97.90
48575;DHT22;34352;51.084;3.712;2022-07-17T01:13:34;16.40;97.70
48575;DHT22;34352;51.084;3.712;2022-07-17T01:16:00;16.50;98.10
48575;DHT22;34352;51.084;3.712;2022-07-17T01:18:26;16.20;98.00
48575;DHT22;34352;51.084;3.712;2022-07-17T01:20:51;16.20;98.10
48575;DHT22;34352;51.084;3.712;2022-07-17T01:23:18;16.20;98.20
48575;DHT22;34352;51.084;3.712;2022-07-17T01:25:45;16.20;98.40
48575;DHT22;34352;51.084;3.712;2022-07-17T01:28:12;16.20;98.60
48575;DHT22;34352;51.084;3.712;2022-07-17T01:30:45;16.20;98.60
48575;DHT22;34352;51.084;3.712;2022-07-17T01:33:11;16.10;98.60
48575;DHT22;34352;51.084;3.712;2022-07-17T01:35:37;16.10;98.60
48575;DHT22;34352;51.084;3.712;2022-07-17T01:38:03;16.10;98.80
48575;DHT22;34352;51.084;3.712;2022-07-17T01:40:29;16.20;98.70
48575;DHT22;34352;51.084;3.712;2022-07-17T01:42:54;16.20;98.80
48575;DHT22;34352;51.084;3.712;2022-07-17T01:45:20;16.30;98.80
48575;DHT22;34352;51.084;3.712;2022-07-17T01:47:46;16.20;98.60
48575;DHT22;34352;51.084;3.712;2022-07-17T01:50:13;16.10;98.90
48575;DHT22;34352;51.084;3.712;2022-07-17T01:52:41;16.00;99.30
48575;DHT22;34352;51.084;3.712;2022-07-17T01:55:09;16.10;99.50
48575;DHT22;34352;51.084;3.712;2022-07-17T01:57:35;16.00;99.50
48575;DHT22;34352;51.084;3.712;2022-07-17T02:00:03;16.50;99.60
48575;DHT22;34352;51.084;3.712;2022-07-17T02:02:28;16.10;99.70
48575;DHT22;34352;51.084;3.712;2022-07-17T02:04:56;16.10;99.30
48575;DHT22;34352;51.084;3.712;2022-07-17T02:07:22;16.10;99.50
48575;DHT22;34352;51.084;3.712;2022-07-17T02:09:47;16.00;99.60
48575;DHT22;34352;51.084;3.712;2022-07-17T02:12:14;16.10;99.60
48575;DHT22;34352;51.084;3.712;2022-07-17T02:14:40;16.00;99.60
48575;DHT22;34352;51.084;3.712;2022-07-17T02:17:07;16.00;99.70
48575;DHT22;34352;51.084;3.712;2022-07-17T02:19:33;16.00;99.70
48575;DHT22;34352;51.084;3.712;2022-07-17T02:21:59;16.00;99.70
48575;DHT22;34352;51.084;3.712;2022-07-17T02:24:26;16.00;99.60
48575;DHT22;34352;51.084;3.712;2022-07-17T02:26:51;15.80;99.80
48575;DHT22;34352;51.084;3.712;2022-07-17T02:29:17;15.80;99.90
48575;DHT22;34352;51.084;3.712;2022-07-17T02:31:43;15.80;99.90
48575;DHT22;34352;51.084;3.712;2022-07-17T02:34:08;15.70;99.90
48575;DHT22;34352;51.084;3.712;2022-07-17T02:36:34;15.70;99.90
48575;DHT22;34352;51.084;3.712;2022-07-17T02:39:01;15.70;99.90
48575;DHT22;34352;51.084;3.712;2022-07-17T02:41:27;15.70;99.90
48575;DHT22;34352;51.084;3.712;2022-07-17T02:43:52;15.90;99.90
48575;DHT22;34352;51.084;3.712;2022-07-17T02:46:18;15.80;99.90
48575;DHT22;34352;51.084;3.712;2022-07-17T02:48:44;15.70;99.90
48575;DHT22;34352;51.084;3.712;2022-07-17T02:51:10;15.90;99.90
48575;DHT22;34352;51.084;3.712;2022-07-17T02:53:36;16.40;99.90
48575;DHT22;34352;51.084;3.712;2022-07-17T02:56:02;15.60;99.90
48575;DHT22;34352;51.084;3.712;2022-07-17T02:58:27;15.50;99.90
48575;DHT22;34352;51.084;3.712;2022-07-17T03:00:53;15.30;99.90
48575;DHT22;34352;51.084;3.712;2022-07-17T03:03:19;15.30;99.90
48575;DHT22;34352;51.084;3.712;2022-07-17T03:05:47;15.30;99.90
48575;DHT22;34352;51.084;3.712;2022-07-17T03:08:13;15.20;99.90
48575;DHT22;34352;51.084;3.712;2022-07-17T03:10:39;15.20;99.90
48575;DHT22;34352;51.084;3.712;2022-07-17T03:13:05;15.30;99.90
48575;DHT22;34352;51.084;3.712;2022-07-17T03:15:31;15.10;99.90
48575;DHT22;34352;51.084;3.712;2022-07-17T03:17:58;15.50;99.90
48575;DHT22;34352;51.084;3.712;2022-07-17T03:20:25;15.30;99.90
48575;DHT22;34352;51.084;3.712;2022-07-17T03:22:50;15.00;99.90
48575;DHT22;34352;51.084;3.712;2022-07-17T03:25:17;14.90;99.90
48575;DHT22;34352;51.084;3.712;2022-07-17T03:27:43;15.00;99.90
48575;DHT22;34352;51.084;3.712;2022-07-17T03:30:09;15.00;99.90
48575;DHT22;34352;51.084;3.712;2022-07-17T03:32:35;15.00;99.90
48575;DHT22;34352;51.084;3.712;2022-07-17T03:35:01;14.90;99.90
48575;DHT22;34352;51.084;3.712;2022-07-17T03:37:28;14.90;99.90
48575;DHT22;34352;51.084;3.712;2022-07-17T03:39:54;14.80;99.90
48575;DHT22;34352;51.084;3.712;2022-07-17T03:42:20;15.60;99.90
48575;DHT22;34352;51.084;3.712;2022-07-17T03:44:45;15.40;99.90
48575;DHT22;34352;51.084;3.712;2022-07-17T03:47:12;14.80;99.90
48575;DHT22;34352;51.084;3.712;2022-07-17T03:49:38;15.00;99.90
48575;DHT22;34352;51.084;3.712;2022-07-17T03:52:04;14.80;99.90
48575;DHT22;34352;51.084;3.712;2022-07-17T03:54:30;14.80;99.90
48575;DHT22;34352;51.084;3.712;2022-07-17T03:56:56;15.70;99.90
48575;DHT22;34352;51.084;3.712;2022-07-17T03:59:22;15.00;99.90
48575;DHT22;34352;51.084;3.712;2022-07-17T04:01:48;14.90;99.90
48575;DHT22;34352;51.084;3.712;2022-07-17T04:04:14;14.80;99.90
48575;DHT22;34352;51.084;3.712;2022-07-17T04:06:40;14.90;99.90
48575;DHT22;34352;51.084;3.712;2022-07-17T04:09:05;15.10;99.90
48575;DHT22;34352;51.084;3.712;2022-07-17T04:11:33;15.30;99.90
48575;DHT22;34352;51.084;3.712;2022-07-17T04:14:00;15.40;99.90
48575;DHT22;34352;51.084;3.712;2022-07-17T04:16:25;15.50;99.90
48575;DHT22;34352;51.084;3.712;2022-07-17T04:18:52;15.40;99.90
48575;DHT22;34352;51.084;3.712;2022-07-17T04:21:19;15.50;99.90
48575;DHT22;34352;51.084;3.712;2022-07-17T04:23:44;15.40;99.90
48575;DHT22;34352;51.084;3.712;2022-07-17T04:26:10;15.20;99.90
48575;DHT22;34352;51.084;3.712;2022-07-17T04:28:36;15.20;99.90
48575;DHT22;34352;51.084;3.712;2022-07-17T04:31:02;15.30;99.90
48575;DHT22;34352;51.084;3.712;2022-07-17T04:33:28;15.40;99.90
48575;DHT22;34352;51.084;3.712;2022-07-17T04:35:54;15.50;99.90
48575;DHT22;34352;51.084;3.712;2022-07-17T04:38:20;15.60;99.90
48575;DHT22;34352;51.084;3.712;2022-07-17T04:40:45;16.00;99.90
48575;DHT22;34352;51.084;3.712;2022-07-17T04:43:15;15.60;99.90
48575;DHT22;34352;51.084;3.712;2022-07-17T04:45:42;15.80;99.90
48575;DHT22;34352;51.084;3.712;2022-07-17T04:48:07;16.10;99.90
48575;DHT22;34352;51.084;3.712;2022-07-17T04:50:33;16.40;99.90
48575;DHT22;34352;51.084;3.712;2022-07-17T04:52:59;17.10;99.90
48575;DHT22;34352;51.084;3.712;2022-07-17T04:55:28;17.10;99.40
48575;DHT22;34352;51.084;3.712;2022-07-17T04:57:54;17.50;98.70
48575;DHT22;34352;51.084;3.712;2022-07-17T05:00:20;17.80;97.70
48575;DHT22;34352;51.084;3.712;2022-07-17T05:02:46;18.20;97.30
48575;DHT22;34352;51.084;3.712;2022-07-17T05:05:11;18.60;96.00
48575;DHT22;34352;51.084;3.712;2022-07-17T05:07:37;18.90;95.20
48575;DHT22;34352;51.084;3.712;2022-07-17T05:10:04;19.10;94.30
48575;DHT22;34352;51.084;3.712;2022-07-17T05:12:30;19.40;93.60
48575;DHT22;34352;51.084;3.712;2022-07-17T05:14:56;19.50;92.50
48575;DHT22;34352;51.084;3.712;2022-07-17T05:17:22;19.70;91.90
48575;DHT22;34352;51.084;3.712;2022-07-17T05:19:48;20.00;91.50
48575;DHT22;34352;51.084;3.712;2022-07-17T05:22:15;20.10;90.90
48575;DHT22;34352;51.084;3.712;2022-07-17T05:24:42;20.30;91.10
48575;DHT22;34352;51.084;3.712;2022-07-17T05:27:08;20.50;90.30
48575;DHT22;34352;51.084;3.712;2022-07-17T05:29:42;20.70;88.90
48575;DHT22;34352;51.084;3.712;2022-07-17T05:32:08;21.30;87.00
48575;DHT22;34352;51.084;3.712;2022-07-17T05:34:34;21.80;85.80
48575;DHT22;34352;51.084;3.712;2022-07-17T05:37:00;21.70;83.20
48575;DHT22;34352;51.084;3.712;2022-07-17T05:39:26;21.90;83.40
48575;DHT22;34352;51.084;3.712;2022-07-17T05:41:52;22.10;82.40
48575;DHT22;34352;51.084;3.712;2022-07-17T05:44:19;22.00;83.20
48575;DHT22;34352;51.084;3.712;2022-07-17T05:46:46;22.50;81.40
48575;DHT22;34352;51.084;3.712;2022-07-17T05:49:11;22.90;79.20
48575;DHT22;34352;51.084;3.712;2022-07-17T05:51:37;23.20;78.90
48575;DHT22;34352;51.084;3.712;2022-07-17T05:54:11;23.30;78.00
48575;DHT22;34352;51.084;3.712;2022-07-17T05:56:40;23.30;78.20
48575;DHT22;34352;51.084;3.712;2022-07-17T05:59:05;23.30;77.10
48575;DHT22;34352;51.084;3.712;2022-07-17T06:01:32;23.50;77.30
48575;DHT22;34352;51.084;3.712;2022-07-17T06:03:59;23.50;76.30
48575;DHT22;34352;51.084;3.712;2022-07-17T06:06:24;23.60;76.40
48575;DHT22;34352;51.084;3.712;2022-07-17T06:08:56;23.80;76.20
48575;DHT22;34352;51.084;3.712;2022-07-17T06:11:22;23.50;76.00
48575;DHT22;34352;51.084;3.712;2022-07-17T06:13:53;23.30;76.40
48575;DHT22;34352;51.084;3.712;2022-07-17T06:16:22;23.80;75.70
48575;DHT22;34352;51.084;3.712;2022-07-17T06:18:48;24.00;74.40
48575;DHT22;34352;51.084;3.712;2022-07-17T06:21:14;24.10;75.50
48575;DHT22;34352;51.084;3.712;2022-07-17T06:23:40;24.40;74.20
48575;DHT22;34352;51.084;3.712;2022-07-17T06:26:06;24.10;74.20
48575;DHT22;34352;51.084;3.712;2022-07-17T06:28:32;24.60;73.00
48575;DHT22;34352;51.084;3.712;2022-07-17T06:30:58;24.60;72.70
48575;DHT22;34352;51.084;3.712;2022-07-17T06:33:24;24.70;72.40
48575;DHT22;34352;51.084;3.712;2022-07-17T06:35:50;25.40;71.00
48575;DHT22;34352;51.084;3.712;2022-07-17T06:38:21;25.50;70.50
48575;DHT22;34352;51.084;3.712;2022-07-17T06:40:47;25.10;71.10
48575;DHT22;34352;51.084;3.712;2022-07-17T06:43:13;24.40;71.60
48575;DHT22;34352;51.084;3.712;2022-07-17T06:45:39;23.80;73.80
48575;DHT22;34352;51.084;3.712;2022-07-17T06:48:05;23.50;74.40
48575;DHT22;34352;51.084;3.712;2022-07-17T06:50:30;23.50;74.80
48575;DHT22;34352;51.084;3.712;2022-07-17T06:52:56;24.10;74.40
48575;DHT22;34352;51.084;3.712;2022-07-17T06:55:23;24.40;73.90
48575;DHT22;34352;51.084;3.712;2022-07-17T06:57:49;24.60;72.70
48575;DHT22;34352;51.084;3.712;2022-07-17T07:00:16;24.90;70.90
48575;DHT22;34352;51.084;3.712;2022-07-17T07:02:44;25.80;70.40
48575;DHT22;34352;51.084;3.712;2022-07-17T07:05:11;27.20;68.60
48575;DHT22;34352;51.084;3.712;2022-07-17T07:07:37;27.20;68.60
48575;DHT22;34352;51.084;3.712;2022-07-17T07:10:03;27.30;66.60
48575;DHT22;34352;51.084;3.712;2022-07-17T07:12:30;26.90;67.60
48575;DHT22;34352;51.084;3.712;2022-07-17T07:14:56;27.40;67.80
48575;DHT22;34352;51.084;3.712;2022-07-17T07:17:23;28.60;65.60
48575;DHT22;34352;51.084;3.712;2022-07-17T07:19:49;28.50;64.30
48575;DHT22;34352;51.084;3.712;2022-07-17T07:22:15;28.80;64.30
48575;DHT22;34352;51.084;3.712;2022-07-17T07:24:41;28.90;64.40
48575;DHT22;34352;51.084;3.712;2022-07-17T07:27:07;29.00;64.10
48575;DHT22;34352;51.084;3.712;2022-07-17T07:29:33;28.80;64.10
48575;DHT22;34352;51.084;3.712;2022-07-17T07:32:00;28.80;64.30
48575;DHT22;34352;51.084;3.712;2022-07-17T07:34:25;30.10;65.30
48575;DHT22;34352;51.084;3.712;2022-07-17T07:36:51;30.50;62.00
48575;DHT22;34352;51.084;3.712;2022-07-17T07:39:19;30.60;61.00
48575;DHT22;34352;51.084;3.712;2022-07-17T07:41:45;30.50;62.20
48575;DHT22;34352;51.084;3.712;2022-07-17T07:44:10;30.80;62.00
48575;DHT22;34352;51.084;3.712;2022-07-17T07:46:36;30.70;61.20
48575;DHT22;34352;51.084;3.712;2022-07-17T07:49:02;30.90;60.70
48575;DHT22;34352;51.084;3.712;2022-07-17T07:51:27;31.30;59.90
48575;DHT22;34352;51.084;3.712;2022-07-17T07:53:53;31.90;60.50
48575;DHT22;34352;51.084;3.712;2022-07-17T07:56:20;31.80;60.60
48575;DHT22;34352;51.084;3.712;2022-07-17T07:58:45;31.20;59.40
48575;DHT22;34352;51.084;3.712;2022-07-17T08:01:11;31.60;59.70
48575;DHT22;34352;51.084;3.712;2022-07-17T08:03:36;31.00;58.70
48575;DHT22;34352;51.084;3.712;2022-07-17T08:06:02;30.80;61.40
48575;DHT22;34352;51.084;3.712;2022-07-17T08:08:28;30.10;59.90
48575;DHT22;34352;51.084;3.712;2022-07-17T08:10:54;30.10;60.90
48575;DHT22;34352;51.084;3.712;2022-07-17T08:13:19;30.10;60.70
48575;DHT22;34352;51.084;3.712;2022-07-17T08:15:45;30.00;61.00
48575;DHT22;34352;51.084;3.712;2022-07-17T08:18:11;29.10;60.70
48575;DHT22;34352;51.084;3.712;2022-07-17T08:20:37;29.50;61.90
48575;DHT22;34352;51.084;3.712;2022-07-17T08:23:03;30.20;61.10
48575;DHT22;34352;51.084;3.712;2022-07-17T08:25:28;30.10;61.30
48575;DHT22;34352;51.084;3.712;2022-07-17T08:27:54;29.90;61.60
48575;DHT22;34352;51.084;3.712;2022-07-17T08:30:20;30.00;61.00
48575;DHT22;34352;51.084;3.712;2022-07-17T08:32:45;30.40;59.10
48575;DHT22;34352;51.084;3.712;2022-07-17T08:35:11;30.10;59.60
48575;DHT22;34352;51.084;3.712;2022-07-17T08:37:48;29.40;60.50
48575;DHT22;34352;51.084;3.712;2022-07-17T08:40:23;29.90;62.00
48575;DHT22;34352;51.084;3.712;2022-07-17T08:42:49;30.00;61.40
48575;DHT22;34352;51.084;3.712;2022-07-17T08:45:16;30.20;60.30
48575;DHT22;34352;51.084;3.712;2022-07-17T08:47:42;30.00;59.80
48575;DHT22;34352;51.084;3.712;2022-07-17T08:50:09;29.60;60.50
48575;DHT22;34352;51.084;3.712;2022-07-17T08:52:40;29.40;62.10
48575;DHT22;34352;51.084;3.712;2022-07-17T08:55:14;29.60;61.20
48575;DHT22;34352;51.084;3.712;2022-07-17T08:57:41;29.00;61.30
48575;DHT22;34352;51.084;3.712;2022-07-17T09:00:08;28.50;62.30
48575;DHT22;34352;51.084;3.712;2022-07-17T09:02:40;29.40;60.30
48575;DHT22;34352;51.084;3.712;2022-07-17T09:05:07;30.70;59.00
48575;DHT22;34352;51.084;3.712;2022-07-17T09:07:33;31.40;60.30
48575;DHT22;34352;51.084;3.712;2022-07-17T09:09:59;31.40;58.70
48575;DHT22;34352;51.084;3.712;2022-07-17T09:12:27;31.20;59.50
48575;DHT22;34352;51.084;3.712;2022-07-17T09:14:53;32.40;59.90
48575;DHT22;34352;51.084;3.712;2022-07-17T09:17:19;33.00;57.10
48575;DHT22;34352;51.084;3.712;2022-07-17T09:19:45;33.80;59.00
48575;DHT22;34352;51.084;3.712;2022-07-17T09:22:16;34.50;58.00
48575;DHT22;34352;51.084;3.712;2022-07-17T09:27:09;34.50;56.40
48575;DHT22;34352;51.084;3.712;2022-07-17T09:29:48;34.40;57.10
48575;DHT22;34352;51.084;3.712;2022-07-17T09:32:23;35.10;57.10
48575;DHT22;34352;51.084;3.712;2022-07-17T09:34:51;36.10;54.50
48575;DHT22;34352;51.084;3.712;2022-07-17T09:37:17;34.70;55.10
48575;DHT22;34352;51.084;3.712;2022-07-17T09:39:44;35.50;56.10
48575;DHT22;34352;51.084;3.712;2022-07-17T09:42:20;35.80;54.30
48575;DHT22;34352;51.084;3.712;2022-07-17T09:45:09;36.70;55.20
48575;DHT22;34352;51.084;3.712;2022-07-17T09:47:37;36.40;52.70
48575;DHT22;34352;51.084;3.712;2022-07-17T09:50:06;35.50;54.20
48575;DHT22;34352;51.084;3.712;2022-07-17T09:52:36;35.40;55.20
48575;DHT22;34352;51.084;3.712;2022-07-17T09:55:03;36.40;53.70
48575;DHT22;34352;51.084;3.712;2022-07-17T09:57:34;37.20;52.90
48575;DHT22;34352;51.084;3.712;2022-07-17T10:00:06;36.50;53.50
48575;DHT22;34352;51.084;3.712;2022-07-17T10:02:33;35.60;54.00
48575;DHT22;34352;51.084;3.712;2022-07-17T10:04:59;36.40;54.00
48575;DHT22;34352;51.084;3.712;2022-07-17T10:07:25;36.70;52.10
48575;DHT22;34352;51.084;3.712;2022-07-17T10:09:51;35.80;52.50
48575;DHT22;34352;51.084;3.712;2022-07-17T10:12:17;35.90;52.50
48575;DHT22;34352;51.084;3.712;2022-07-17T10:14:47;36.90;52.80
48575;DHT22;34352;51.084;3.712;2022-07-17T10:17:13;37.00;51.90
48575;DHT22;34352;51.084;3.712;2022-07-17T10:19:50;37.10;50.70
48575;DHT22;34352;51.084;3.712;2022-07-17T10:22:16;37.30;52.10
48575;DHT22;34352;51.084;3.712;2022-07-17T10:25:04;37.60;51.60
48575;DHT22;34352;51.084;3.712;2022-07-17T10:27:30;38.10;51.60
48575;DHT22;34352;51.084;3.712;2022-07-17T10:30:06;38.30;51.40
48575;DHT22;34352;51.084;3.712;2022-07-17T10:32:33;38.60;51.60
48575;DHT22;34352;51.084;3.712;2022-07-17T10:35:06;39.20;51.60
48575;DHT22;34352;51.084;3.712;2022-07-17T10:37:39;38.70;49.20
48575;DHT22;34352;51.084;3.712;2022-07-17T10:40:26;37.70;50.10
48575;DHT22;34352;51.084;3.712;2022-07-17T10:43:05;36.30;51.20
48575;DHT22;34352;51.084;3.712;2022-07-17T10:48:16;36.20;52.70
48575;DHT22;34352;51.084;3.712;2022-07-17T10:53:25;38.70;51.00
48575;DHT22;34352;51.084;3.712;2022-07-17T10:56:02;38.40;49.80
48575;DHT22;34352;51.084;3.712;2022-07-17T10:58:37;38.30;49.50
48575;DHT22;34352;51.084;3.712;2022-07-17T11:03:54;37.10;49.70
48575;DHT22;34352;51.084;3.712;2022-07-17T11:08:51;36.50;50.10
48575;DHT22;34352;51.084;3.712;2022-07-17T11:11:22;36.40;50.50
48575;DHT22;34352;51.084;3.712;2022-07-17T11:13:49;36.90;50.80
48575;DHT22;34352;51.084;3.712;2022-07-17T11:16:29;37.40;51.30
48575;DHT22;34352;51.084;3.712;2022-07-17T11:18:56;37.80;49.60
48575;DHT22;34352;51.084;3.712;2022-07-17T11:21:22;37.50;49.10
48575;DHT22;34352;51.084;3.712;2022-07-17T11:23:55;36.80;49.10
48575;DHT22;34352;51.084;3.712;2022-07-17T11:26:22;37.50;51.90
48575;DHT22;34352;51.084;3.712;2022-07-17T11:28:49;37.90;48.80
48575;DHT22;34352;51.084;3.712;2022-07-17T11:31:21;38.10;50.60
48575;DHT22;34352;51.084;3.712;2022-07-17T11:34:03;39.20;50.90
48575;DHT22;34352;51.084;3.712;2022-07-17T11:36:35;39.60;49.90
48575;DHT22;34352;51.084;3.712;2022-07-17T11:39:09;39.70;49.70
48575;DHT22;34352;51.084;3.712;2022-07-17T11:41:45;39.90;50.10
48575;DHT22;34352;51.084;3.712;2022-07-17T11:44:16;39.60;48.20
48575;DHT22;34352;51.084;3.712;2022-07-17T11:46:45;40.00;49.20
48575;DHT22;34352;51.084;3.712;2022-07-17T11:49:24;40.00;47.40
48575;DHT22;34352;51.084;3.712;2022-07-17T11:51:50;37.20;48.60
48575;DHT22;34352;51.084;3.712;2022-07-17T11:54:17;36.40;48.50
48575;DHT22;34352;51.084;3.712;2022-07-17T11:56:54;36.90;51.20
48575;DHT22;34352;51.084;3.712;2022-07-17T11:59:31;38.40;49.60
48575;DHT22;34352;51.084;3.712;2022-07-17T12:02:16;39.20;49.10
48575;DHT22;34352;51.084;3.712;2022-07-17T12:04:56;39.80;48.20
48575;DHT22;34352;51.084;3.712;2022-07-17T12:07:23;40.40;48.00
48575;DHT22;34352;51.084;3.712;2022-07-17T12:09:53;40.80;48.20
48575;DHT22;34352;51.084;3.712;2022-07-17T12:14:55;40.50;46.60
48575;DHT22;34352;51.084;3.712;2022-07-17T12:17:22;39.00;46.90
48575;DHT22;34352;51.084;3.712;2022-07-17T12:19:47;38.80;48.80
48575;DHT22;34352;51.084;3.712;2022-07-17T12:22:13;38.50;48.10
48575;DHT22;34352;51.084;3.712;2022-07-17T12:24:45;38.20;46.50
48575;DHT22;34352;51.084;3.712;2022-07-17T12:27:13;37.70;46.60
48575;DHT22;34352;51.084;3.712;2022-07-17T12:29:40;38.10;48.50
48575;DHT22;34352;51.084;3.712;2022-07-17T12:32:14;38.20;46.50
48575;DHT22;34352;51.084;3.712;2022-07-17T12:34:43;38.00;47.00
48575;DHT22;34352;51.084;3.712;2022-07-17T12:37:13;38.30;49.00
48575;DHT22;34352;51.084;3.712;2022-07-17T12:39:39;37.50;46.80
48575;DHT22;34352;51.084;3.712;2022-07-17T12:42:06;36.10;47.40
48575;DHT22;34352;51.084;3.712;2022-07-17T12:44:33;36.40;48.50
48575;DHT22;34352;51.084;3.712;2022-07-17T12:46:59;37.00;48.70
48575;DHT22;34352;51.084;3.712;2022-07-17T12:49:25;38.10;47.50
48575;DHT22;34352;51.084;3.712;2022-07-17T12:51:52;37.60;46.90
48575;DHT22;34352;51.084;3.712;2022-07-17T12:54:18;35.80;48.00
48575;DHT22;34352;51.084;3.712;2022-07-17T12:56:44;36.30;49.10
48575;DHT22;34352;51.084;3.712;2022-07-17T12:59:10;37.50;49.50
48575;DHT22;34352;51.084;3.712;2022-07-17T13:01:36;38.30;48.20
48575;DHT22;34352;51.084;3.712;2022-07-17T13:04:02;38.40;45.20
48575;DHT22;34352;51.084;3.712;2022-07-17T13:06:29;37.70;46.10
48575;DHT22;34352;51.084;3.712;2022-07-17T13:08:55;38.20;47.90
48575;DHT22;34352;51.084;3.712;2022-07-17T13:11:21;38.70;47.50
48575;DHT22;34352;51.084;3.712;2022-07-17T13:13:46;38.90;47.40
48575;DHT22;34352;51.084;3.712;2022-07-17T13:16:13;39.30;48.30
48575;DHT22;34352;51.084;3.712;2022-07-17T13:18:39;38.00;46.60
48575;DHT22;34352;51.084;3.712;2022-07-17T13:21:06;36.00;46.90
48575;DHT22;34352;51.084;3.712;2022-07-17T13:23:32;36.00;47.20
48575;DHT22;34352;51.084;3.712;2022-07-17T13:25:59;35.60;47.60
48575;DHT22;34352;51.084;3.712;2022-07-17T13:28:25;35.70;50.50
48575;DHT22;34352;51.084;3.712;2022-07-17T13:30:50;36.60;48.10
48575;DHT22;34352;51.084;3.712;2022-07-17T13:33:16;36.50;48.40
48575;DHT22;34352;51.084;3.712;2022-07-17T13:35:42;35.70;47.90
48575;DHT22;34352;51.084;3.712;2022-07-17T13:38:07;34.80;48.40
48575;DHT22;34352;51.084;3.712;2022-07-17T13:40:34;34.70;49.10
48575;DHT22;34352;51.084;3.712;2022-07-17T13:43:01;34.40;48.60
48575;DHT22;34352;51.084;3.712;2022-07-17T13:45:27;33.10;49.40
48575;DHT22;34352;51.084;3.712;2022-07-17T13:47:54;33.40;51.30
48575;DHT22;34352;51.084;3.712;2022-07-17T13:50:20;34.30;50.30
48575;DHT22;34352;51.084;3.712;2022-07-17T13:52:47;34.50;49.30
48575;DHT22;34352;51.084;3.712;2022-07-17T13:55:12;34.10;47.20
48575;DHT22;34352;51.084;3.712;2022-07-17T13:57:40;34.20;48.00
48575;DHT22;34352;51.084;3.712;2022-07-17T14:00:06;34.00;48.20
48575;DHT22;34352;51.084;3.712;2022-07-17T14:02:34;33.20;49.30
48575;DHT22;34352;51.084;3.712;2022-07-17T14:05:00;33.10;49.70
48575;DHT22;34352;51.084;3.712;2022-07-17T14:07:26;32.70;49.00
48575;DHT22;34352;51.084;3.712;2022-07-17T14:09:52;32.40;50.20
48575;DHT22;34352;51.084;3.712;2022-07-17T14:12:17;32.60;51.40
48575;DHT22;34352;51.084;3.712;2022-07-17T14:14:43;33.00;50.60
48575;DHT22;34352;51.084;3.712;2022-07-17T14:17:09;32.90;50.70
48575;DHT22;34352;51.084;3.712;2022-07-17T14:19:34;32.90;50.50
48575;DHT22;34352;51.084;3.712;2022-07-17T14:22:04;32.70;50.10
48575;DHT22;34352;51.084;3.712;2022-07-17T14:24:29;32.50;52.70
48575;DHT22;34352;51.084;3.712;2022-07-17T14:26:55;32.10;50.20
48575;DHT22;34352;51.084;3.712;2022-07-17T14:29:21;31.70;52.20
48575;DHT22;34352;51.084;3.712;2022-07-17T14:31:46;31.10;53.50
48575;DHT22;34352;51.084;3.712;2022-07-17T14:34:13;30.70;52.60
48575;DHT22;34352;51.084;3.712;2022-07-17T14:36:39;30.70;52.30
48575;DHT22;34352;51.084;3.712;2022-07-17T14:39:05;30.70;52.20
48575;DHT22;34352;51.084;3.712;2022-07-17T14:41:32;30.40;52.60
48575;DHT22;34352;51.084;3.712;2022-07-17T14:43:58;30.10;51.70
48575;DHT22;34352;51.084;3.712;2022-07-17T14:46:25;30.50;52.60
48575;DHT22;34352;51.084;3.712;2022-07-17T14:48:50;30.70;50.70
48575;DHT22;34352;51.084;3.712;2022-07-17T14:51:16;30.40;51.70
48575;DHT22;34352;51.084;3.712;2022-07-17T14:53:42;30.20;52.90
48575;DHT22;34352;51.084;3.712;2022-07-17T14:56:08;29.70;52.40
48575;DHT22;34352;51.084;3.712;2022-07-17T14:58:34;29.70;53.80
48575;DHT22;34352;51.084;3.712;2022-07-17T15:00:59;30.00;53.20
48575;DHT22;34352;51.084;3.712;2022-07-17T15:03:26;30.20;53.50
48575;DHT22;34352;51.084;3.712;2022-07-17T15:05:52;30.00;53.30
48575;DHT22;34352;51.084;3.712;2022-07-17T15:08:18;30.20;54.40
48575;DHT22;34352;51.084;3.712;2022-07-17T15:10:43;30.00;53.40
48575;DHT22;34352;51.084;3.712;2022-07-17T15:13:09;29.90;53.30
48575;DHT22;34352;51.084;3.712;2022-07-17T15:15:35;29.90;53.70
48575;DHT22;34352;51.084;3.712;2022-07-17T15:18:01;30.00;52.90
48575;DHT22;34352;51.084;3.712;2022-07-17T15:20:27;30.10;51.20
48575;DHT22;34352;51.084;3.712;2022-07-17T15:22:52;29.70;51.00
48575;DHT22;34352;51.084;3.712;2022-07-17T15:25:18;29.60;52.20
48575;DHT22;34352;51.084;3.712;2022-07-17T15:27:44;29.30;51.40
48575;DHT22;34352;51.084;3.712;2022-07-17T15:30:10;29.20;53.90
48575;DHT22;34352;51.084;3.712;2022-07-17T15:32:37;29.40;53.00
48575;DHT22;34352;51.084;3.712;2022-07-17T15:35:03;29.50;52.40
48575;DHT22;34352;51.084;3.712;2022-07-17T15:37:30;29.70;52.60
48575;DHT22;34352;51.084;3.712;2022-07-17T15:39:57;29.70;52.50
48575;DHT22;34352;51.084;3.712;2022-07-17T15:42:25;29.90;53.10
48575;DHT22;34352;51.084;3.712;2022-07-17T15:44:51;30.20;52.70